sensor_id;sensor_type;location;lat;lon;timestamp;P1;durP1;ratioP1;P2;durP2;ratioP2
47545;SDS011;50104;52.002;4.688;2022-08-03T00:02:20;7.15;;;2.03;;
47545;SDS011;50104;52.002;4.688;2022-08-03T00:07:21;10.25;;;2.03;;
47545;SDS011;50104;52.002;4.688;2022-08-03T00:12:21;8.30;;;1.77;;
47545;SDS011;50104;52.002;4.688;2022-08-03T00:17:22;8.55;;;1.92;;
47545;SDS011;50104;52.002;4.688;2022-08-03T00:22:23;11.40;;;2.03;;
47545;SDS011;50104;52.002;4.688;2022-08-03T00:27:24;5.63;;;1.50;;
47545;SDS011;50104;52.002;4.688;2022-08-03T00:32:24;5.40;;;1.77;;
47545;SDS011;50104;52.002;4.688;2022-08-03T00:37:25;7.28;;;1.85;;
47545;SDS011;50104;52.002;4.688;2022-08-03T00:42:26;6.53;;;1.58;;
47545;SDS011;50104;52.002;4.688;2022-08-03T00:47:27;5.15;;;1.40;;
47545;SDS011;50104;52.002;4.688;2022-08-03T00:52:27;10.25;;;1.92;;
47545;SDS011;50104;52.002;4.688;2022-08-03T00:57:28;3.97;;;1.85;;
47545;SDS011;50104;52.002;4.688;2022-08-03T01:02:31;6.05;;;1.95;;
47545;SDS011;50104;52.002;4.688;2022-08-03T01:07:36;7.65;;;2.00;;
47545;SDS011;50104;52.002;4.688;2022-08-03T01:17:59;4.78;;;1.80;;
47545;SDS011;50104;52.002;4.688;2022-08-03T01:28:50;5.97;;;1.88;;
47545;SDS011;50104;52.002;4.688;2022-08-03T01:33:58;7.72;;;2.53;;
47545;SDS011;50104;52.002;4.688;2022-08-03T01:39:03;9.25;;;2.20;;
47545;SDS011;50104;52.002;4.688;2022-08-03T01:44:09;4.57;;;1.67;;
47545;SDS011;50104;52.002;4.688;2022-08-03T01:49:12;8.15;;;1.88;;
47545;SDS011;50104;52.002;4.688;2022-08-03T01:54:13;5.65;;;1.80;;
47545;SDS011;50104;52.002;4.688;2022-08-03T01:59:14;5.57;;;1.92;;
47545;SDS011;50104;52.002;4.688;2022-08-03T02:04:16;5.78;;;1.90;;
47545;SDS011;50104;52.002;4.688;2022-08-03T02:09:19;9.45;;;2.28;;
47545;SDS011;50104;52.002;4.688;2022-08-03T02:14:21;7.88;;;2.03;;
47545;SDS011;50104;52.002;4.688;2022-08-03T02:19:23;7.63;;;2.00;;
47545;SDS011;50104;52.002;4.688;2022-08-03T02:24:25;6.45;;;2.08;;
47545;SDS011;50104;52.002;4.688;2022-08-03T02:29:27;7.32;;;2.38;;
47545;SDS011;50104;52.002;4.688;2022-08-03T02:34:33;6.93;;;2.50;;
47545;SDS011;50104;52.002;4.688;2022-08-03T02:39:34;9.40;;;2.08;;
47545;SDS011;50104;52.002;4.688;2022-08-03T02:44:38;10.35;;;2.88;;
47545;SDS011;50104;52.002;4.688;2022-08-03T02:49:42;6.28;;;2.35;;
47545;SDS011;50104;52.002;4.688;2022-08-03T02:54:46;5.40;;;2.00;;
47545;SDS011;50104;52.002;4.688;2022-08-03T02:59:51;6.25;;;2.42;;
47545;SDS011;50104;52.002;4.688;2022-08-03T03:04:53;8.10;;;2.90;;
47545;SDS011;50104;52.002;4.688;2022-08-03T03:09:55;7.43;;;3.10;;
47545;SDS011;50104;52.002;4.688;2022-08-03T03:14:56;5.60;;;2.55;;
47545;SDS011;50104;52.002;4.688;2022-08-03T03:19:57;10.75;;;3.28;;
47545;SDS011;50104;52.002;4.688;2022-08-03T03:24:59;12.80;;;3.13;;
47545;SDS011;50104;52.002;4.688;2022-08-03T03:30:01;6.75;;;2.40;;
47545;SDS011;50104;52.002;4.688;2022-08-03T03:35:03;12.77;;;2.65;;
47545;SDS011;50104;52.002;4.688;2022-08-03T03:40:05;10.52;;;2.92;;
47545;SDS011;50104;52.002;4.688;2022-08-03T03:45:08;7.88;;;2.42;;
47545;SDS011;50104;52.002;4.688;2022-08-03T03:50:09;9.75;;;2.85;;
47545;SDS011;50104;52.002;4.688;2022-08-03T03:55:14;10.00;;;2.78;;
47545;SDS011;50104;52.002;4.688;2022-08-03T04:00:16;7.75;;;2.33;;
47545;SDS011;50104;52.002;4.688;2022-08-03T04:05:18;7.10;;;2.50;;
47545;SDS011;50104;52.002;4.688;2022-08-03T04:10:37;8.90;;;2.63;;
47545;SDS011;50104;52.002;4.688;2022-08-03T04:15:59;9.43;;;3.45;;
47545;SDS011;50104;52.002;4.688;2022-08-03T04:21:02;10.88;;;2.80;;
47545;SDS011;50104;52.002;4.688;2022-08-03T04:26:11;12.25;;;3.40;;
47545;SDS011;50104;52.002;4.688;2022-08-03T04:31:14;9.07;;;2.70;;
47545;SDS011;50104;52.002;4.688;2022-08-03T04:36:19;12.07;;;2.95;;
47545;SDS011;50104;52.002;4.688;2022-08-03T04:41:23;11.23;;;3.10;;
47545;SDS011;50104;52.002;4.688;2022-08-03T04:46:27;11.15;;;3.42;;
47545;SDS011;50104;52.002;4.688;2022-08-03T04:51:32;12.25;;;3.35;;
47545;SDS011;50104;52.002;4.688;2022-08-03T04:56:33;9.50;;;3.45;;
47545;SDS011;50104;52.002;4.688;2022-08-03T05:01:35;11.77;;;3.42;;
47545;SDS011;50104;52.002;4.688;2022-08-03T05:06:36;11.40;;;3.70;;
47545;SDS011;50104;52.002;4.688;2022-08-03T05:11:36;11.30;;;3.72;;
47545;SDS011;50104;52.002;4.688;2022-08-03T05:16:37;11.85;;;2.92;;
47545;SDS011;50104;52.002;4.688;2022-08-03T05:21:38;9.05;;;3.30;;
47545;SDS011;50104;52.002;4.688;2022-08-03T05:26:39;10.63;;;4.07;;
47545;SDS011;50104;52.002;4.688;2022-08-03T05:31:41;15.75;;;4.78;;
47545;SDS011;50104;52.002;4.688;2022-08-03T05:36:41;11.32;;;3.80;;
47545;SDS011;50104;52.002;4.688;2022-08-03T05:41:42;12.55;;;3.90;;
47545;SDS011;50104;52.002;4.688;2022-08-03T05:46:43;10.88;;;4.05;;
47545;SDS011;50104;52.002;4.688;2022-08-03T05:51:44;17.85;;;5.32;;
47545;SDS011;50104;52.002;4.688;2022-08-03T05:56:45;15.57;;;5.00;;
47545;SDS011;50104;52.002;4.688;2022-08-03T06:01:46;14.27;;;6.28;;
47545;SDS011;50104;52.002;4.688;2022-08-03T06:06:47;18.20;;;5.45;;
47545;SDS011;50104;52.002;4.688;2022-08-03T06:11:49;14.50;;;7.00;;
47545;SDS011;50104;52.002;4.688;2022-08-03T06:16:50;15.95;;;8.88;;
47545;SDS011;50104;52.002;4.688;2022-08-03T06:21:51;20.48;;;9.00;;
47545;SDS011;50104;52.002;4.688;2022-08-03T06:26:52;19.92;;;8.90;;
47545;SDS011;50104;52.002;4.688;2022-08-03T06:31:52;13.57;;;9.10;;
47545;SDS011;50104;52.002;4.688;2022-08-03T06:36:53;20.70;;;8.65;;
47545;SDS011;50104;52.002;4.688;2022-08-03T06:41:54;14.68;;;9.05;;
47545;SDS011;50104;52.002;4.688;2022-08-03T06:46:55;19.40;;;9.57;;
47545;SDS011;50104;52.002;4.688;2022-08-03T06:51:55;13.90;;;7.95;;
47545;SDS011;50104;52.002;4.688;2022-08-03T06:56:56;14.95;;;8.00;;
47545;SDS011;50104;52.002;4.688;2022-08-03T07:01:57;14.98;;;9.02;;
47545;SDS011;50104;52.002;4.688;2022-08-03T07:06:58;16.08;;;9.30;;
47545;SDS011;50104;52.002;4.688;2022-08-03T07:11:58;22.38;;;10.98;;
47545;SDS011;50104;52.002;4.688;2022-08-03T07:17:01;23.10;;;11.13;;
47545;SDS011;50104;52.002;4.688;2022-08-03T07:22:02;18.90;;;11.55;;
47545;SDS011;50104;52.002;4.688;2022-08-03T07:27:02;17.58;;;12.05;;
47545;SDS011;50104;52.002;4.688;2022-08-03T07:32:04;25.17;;;13.73;;
47545;SDS011;50104;52.002;4.688;2022-08-03T07:37:05;20.38;;;12.77;;
47545;SDS011;50104;52.002;4.688;2022-08-03T07:42:05;19.02;;;11.63;;
47545;SDS011;50104;52.002;4.688;2022-08-03T07:47:07;17.30;;;11.07;;
47545;SDS011;50104;52.002;4.688;2022-08-03T07:52:08;18.63;;;12.38;;
47545;SDS011;50104;52.002;4.688;2022-08-03T07:57:27;17.00;;;12.30;;
47545;SDS011;50104;52.002;4.688;2022-08-03T08:02:28;20.23;;;12.90;;
47545;SDS011;50104;52.002;4.688;2022-08-03T08:07:29;20.95;;;12.38;;
47545;SDS011;50104;52.002;4.688;2022-08-03T08:12:29;16.90;;;11.40;;
47545;SDS011;50104;52.002;4.688;2022-08-03T08:17:30;17.40;;;10.32;;
47545;SDS011;50104;52.002;4.688;2022-08-03T08:22:41;17.60;;;9.75;;
47545;SDS011;50104;52.002;4.688;2022-08-03T08:27:42;15.52;;;10.23;;
47545;SDS011;50104;52.002;4.688;2022-08-03T08:32:46;16.48;;;9.95;;
47545;SDS011;50104;52.002;4.688;2022-08-03T08:37:48;17.00;;;8.82;;
47545;SDS011;50104;52.002;4.688;2022-08-03T08:42:49;19.88;;;10.65;;
47545;SDS011;50104;52.002;4.688;2022-08-03T08:47:50;18.90;;;8.65;;
47545;SDS011;50104;52.002;4.688;2022-08-03T08:52:54;15.65;;;9.40;;
47545;SDS011;50104;52.002;4.688;2022-08-03T08:58:06;17.33;;;9.13;;
47545;SDS011;50104;52.002;4.688;2022-08-03T09:03:12;19.73;;;9.23;;
47545;SDS011;50104;52.002;4.688;2022-08-03T09:08:13;19.02;;;10.60;;
47545;SDS011;50104;52.002;4.688;2022-08-03T09:13:14;15.85;;;9.98;;
47545;SDS011;50104;52.002;4.688;2022-08-03T09:18:22;14.40;;;9.10;;
47545;SDS011;50104;52.002;4.688;2022-08-03T09:23:42;18.73;;;9.95;;
47545;SDS011;50104;52.002;4.688;2022-08-03T09:28:55;14.55;;;8.05;;
47545;SDS011;50104;52.002;4.688;2022-08-03T09:34:08;13.57;;;8.73;;
47545;SDS011;50104;52.002;4.688;2022-08-03T09:39:18;11.65;;;8.68;;
47545;SDS011;50104;52.002;4.688;2022-08-03T09:44:25;12.40;;;8.00;;
47545;SDS011;50104;52.002;4.688;2022-08-03T09:49:37;13.55;;;7.63;;
47545;SDS011;50104;52.002;4.688;2022-08-03T09:54:41;14.13;;;8.77;;
47545;SDS011;50104;52.002;4.688;2022-08-03T09:59:42;16.80;;;8.60;;
47545;SDS011;50104;52.002;4.688;2022-08-03T10:04:46;15.75;;;7.32;;
47545;SDS011;50104;52.002;4.688;2022-08-03T10:09:56;15.60;;;7.07;;
47545;SDS011;50104;52.002;4.688;2022-08-03T10:14:59;15.40;;;7.32;;
47545;SDS011;50104;52.002;4.688;2022-08-03T10:20:03;10.93;;;7.60;;
47545;SDS011;50104;52.002;4.688;2022-08-03T10:25:06;16.88;;;7.40;;
47545;SDS011;50104;52.002;4.688;2022-08-03T10:30:10;13.97;;;7.13;;
47545;SDS011;50104;52.002;4.688;2022-08-03T10:35:13;13.10;;;6.95;;
47545;SDS011;50104;52.002;4.688;2022-08-03T10:40:15;10.05;;;5.88;;
47545;SDS011;50104;52.002;4.688;2022-08-03T10:45:20;12.02;;;6.90;;
47545;SDS011;50104;52.002;4.688;2022-08-03T10:50:25;15.20;;;6.55;;
47545;SDS011;50104;52.002;4.688;2022-08-03T10:55:31;13.43;;;5.47;;
47545;SDS011;50104;52.002;4.688;2022-08-03T11:01:03;8.82;;;5.15;;
47545;SDS011;50104;52.002;4.688;2022-08-03T11:06:16;12.55;;;5.80;;
47545;SDS011;50104;52.002;4.688;2022-08-03T11:11:26;9.20;;;4.55;;
47545;SDS011;50104;52.002;4.688;2022-08-03T11:16:28;9.60;;;4.28;;
47545;SDS011;50104;52.002;4.688;2022-08-03T11:27:15;9.73;;;4.18;;
47545;SDS011;50104;52.002;4.688;2022-08-03T11:43:01;10.70;;;3.58;;
47545;SDS011;50104;52.002;4.688;2022-08-03T11:48:21;9.70;;;3.72;;
47545;SDS011;50104;52.002;4.688;2022-08-03T11:53:26;14.05;;;5.03;;
47545;SDS011;50104;52.002;4.688;2022-08-03T11:58:28;9.50;;;3.80;;
47545;SDS011;50104;52.002;4.688;2022-08-03T12:03:31;10.77;;;4.60;;
47545;SDS011;50104;52.002;4.688;2022-08-03T12:08:33;12.68;;;4.80;;
47545;SDS011;50104;52.002;4.688;2022-08-03T12:13:45;6.63;;;3.10;;
47545;SDS011;50104;52.002;4.688;2022-08-03T12:24:03;10.18;;;2.88;;
47545;SDS011;50104;52.002;4.688;2022-08-03T12:29:06;10.32;;;3.40;;
47545;SDS011;50104;52.002;4.688;2022-08-03T12:34:06;7.70;;;2.75;;
47545;SDS011;50104;52.002;4.688;2022-08-03T12:39:08;6.20;;;2.45;;
47545;SDS011;50104;52.002;4.688;2022-08-03T12:44:10;5.00;;;2.13;;
47545;SDS011;50104;52.002;4.688;2022-08-03T12:49:12;7.40;;;2.25;;
47545;SDS011;50104;52.002;4.688;2022-08-03T12:54:17;7.53;;;2.40;;
47545;SDS011;50104;52.002;4.688;2022-08-03T12:59:24;5.47;;;1.85;;
47545;SDS011;50104;52.002;4.688;2022-08-03T13:04:27;8.07;;;2.00;;
47545;SDS011;50104;52.002;4.688;2022-08-03T13:09:40;5.10;;;1.53;;
47545;SDS011;50104;52.002;4.688;2022-08-03T13:14:49;6.78;;;2.13;;
47545;SDS011;50104;52.002;4.688;2022-08-03T13:19:55;4.75;;;1.50;;
47545;SDS011;50104;52.002;4.688;2022-08-03T13:24:56;10.10;;;1.48;;
47545;SDS011;50104;52.002;4.688;2022-08-03T13:29:57;6.45;;;1.60;;
47545;SDS011;50104;52.002;4.688;2022-08-03T13:34:58;3.67;;;1.48;;
47545;SDS011;50104;52.002;4.688;2022-08-03T13:39:59;6.15;;;1.88;;
47545;SDS011;50104;52.002;4.688;2022-08-03T13:45:02;4.43;;;1.25;;
47545;SDS011;50104;52.002;4.688;2022-08-03T13:50:04;4.25;;;1.40;;
47545;SDS011;50104;52.002;4.688;2022-08-03T13:55:06;4.20;;;1.13;;
47545;SDS011;50104;52.002;4.688;2022-08-03T14:00:08;4.63;;;1.40;;
47545;SDS011;50104;52.002;4.688;2022-08-03T14:05:10;3.47;;;1.27;;
47545;SDS011;50104;52.002;4.688;2022-08-03T14:10:10;3.58;;;1.40;;
47545;SDS011;50104;52.002;4.688;2022-08-03T14:15:11;5.68;;;0.98;;
47545;SDS011;50104;52.002;4.688;2022-08-03T14:20:12;8.60;;;1.58;;
47545;SDS011;50104;52.002;4.688;2022-08-03T14:25:14;7.63;;;1.17;;
47545;SDS011;50104;52.002;4.688;2022-08-03T14:30:15;2.78;;;1.00;;
47545;SDS011;50104;52.002;4.688;2022-08-03T14:35:16;5.40;;;1.30;;
47545;SDS011;50104;52.002;4.688;2022-08-03T14:40:17;5.85;;;1.30;;
47545;SDS011;50104;52.002;4.688;2022-08-03T14:45:19;2.50;;;1.20;;
47545;SDS011;50104;52.002;4.688;2022-08-03T14:50:20;4.13;;;1.20;;
47545;SDS011;50104;52.002;4.688;2022-08-03T14:55:22;2.60;;;0.90;;
47545;SDS011;50104;52.002;4.688;2022-08-03T15:00:23;5.88;;;1.33;;
47545;SDS011;50104;52.002;4.688;2022-08-03T15:05:23;4.43;;;1.45;;
47545;SDS011;50104;52.002;4.688;2022-08-03T15:10:24;6.97;;;2.25;;
47545;SDS011;50104;52.002;4.688;2022-08-03T15:15:25;5.35;;;1.67;;
47545;SDS011;50104;52.002;4.688;2022-08-03T15:20:26;6.93;;;1.73;;
47545;SDS011;50104;52.002;4.688;2022-08-03T15:25:26;3.45;;;1.58;;
47545;SDS011;50104;52.002;4.688;2022-08-03T15:30:27;7.18;;;1.10;;
47545;SDS011;50104;52.002;4.688;2022-08-03T15:35:28;4.70;;;1.52;;
47545;SDS011;50104;52.002;4.688;2022-08-03T15:40:29;5.28;;;1.20;;
47545;SDS011;50104;52.002;4.688;2022-08-03T15:45:29;2.90;;;1.10;;
47545;SDS011;50104;52.002;4.688;2022-08-03T15:50:30;8.50;;;1.30;;
47545;SDS011;50104;52.002;4.688;2022-08-03T15:55:31;3.92;;;0.95;;
47545;SDS011;50104;52.002;4.688;2022-08-03T16:00:32;5.60;;;1.40;;
47545;SDS011;50104;52.002;4.688;2022-08-03T16:05:33;3.63;;;1.65;;
47545;SDS011;50104;52.002;4.688;2022-08-03T16:10:34;4.20;;;1.38;;
47545;SDS011;50104;52.002;4.688;2022-08-03T16:15:35;3.53;;;1.15;;
47545;SDS011;50104;52.002;4.688;2022-08-03T16:20:37;3.47;;;1.00;;
47545;SDS011;50104;52.002;4.688;2022-08-03T16:25:39;9.32;;;1.42;;
47545;SDS011;50104;52.002;4.688;2022-08-03T16:30:41;4.40;;;1.20;;
47545;SDS011;50104;52.002;4.688;2022-08-03T16:35:45;4.60;;;1.38;;
47545;SDS011;50104;52.002;4.688;2022-08-03T16:40:48;3.97;;;1.20;;
47545;SDS011;50104;52.002;4.688;2022-08-03T16:45:52;5.18;;;1.40;;
47545;SDS011;50104;52.002;4.688;2022-08-03T16:50:53;3.50;;;1.05;;
47545;SDS011;50104;52.002;4.688;2022-08-03T16:55:54;6.03;;;1.27;;
47545;SDS011;50104;52.002;4.688;2022-08-03T17:00:55;3.00;;;1.02;;
47545;SDS011;50104;52.002;4.688;2022-08-03T17:05:55;6.60;;;1.05;;
47545;SDS011;50104;52.002;4.688;2022-08-03T17:10:57;3.60;;;0.98;;
47545;SDS011;50104;52.002;4.688;2022-08-03T17:15:58;4.15;;;1.10;;
47545;SDS011;50104;52.002;4.688;2022-08-03T17:21:03;6.00;;;1.30;;
47545;SDS011;50104;52.002;4.688;2022-08-03T17:26:05;4.65;;;1.70;;
47545;SDS011;50104;52.002;4.688;2022-08-03T17:31:11;5.55;;;1.23;;
47545;SDS011;50104;52.002;4.688;2022-08-03T17:36:15;10.63;;;2.10;;
47545;SDS011;50104;52.002;4.688;2022-08-03T17:41:20;4.60;;;1.00;;
47545;SDS011;50104;52.002;4.688;2022-08-03T17:46:22;4.35;;;1.00;;
47545;SDS011;50104;52.002;4.688;2022-08-03T17:51:44;4.60;;;2.10;;
47545;SDS011;50104;52.002;4.688;2022-08-03T18:02:35;3.67;;;1.70;;
47545;SDS011;50104;52.002;4.688;2022-08-03T18:08:22;3.70;;;1.52;;
47545;SDS011;50104;52.002;4.688;2022-08-03T18:13:36;5.15;;;1.10;;
47545;SDS011;50104;52.002;4.688;2022-08-03T18:19:06;4.45;;;1.25;;
47545;SDS011;50104;52.002;4.688;2022-08-03T18:24:08;2.15;;;1.00;;
47545;SDS011;50104;52.002;4.688;2022-08-03T18:29:13;4.10;;;1.23;;
47545;SDS011;50104;52.002;4.688;2022-08-03T18:34:14;9.38;;;1.60;;
47545;SDS011;50104;52.002;4.688;2022-08-03T18:39:15;1.52;;;1.00;;
47545;SDS011;50104;52.002;4.688;2022-08-03T18:44:18;3.10;;;1.10;;
47545;SDS011;50104;52.002;4.688;2022-08-03T18:55:09;2.28;;;1.05;;
47545;SDS011;50104;52.002;4.688;2022-08-03T19:00:18;3.13;;;1.08;;
47545;SDS011;50104;52.002;4.688;2022-08-03T19:05:20;3.55;;;1.00;;
47545;SDS011;50104;52.002;4.688;2022-08-03T19:10:24;5.93;;;1.70;;
47545;SDS011;50104;52.002;4.688;2022-08-03T19:15:30;5.30;;;1.10;;
47545;SDS011;50104;52.002;4.688;2022-08-03T19:20:32;3.33;;;1.00;;
47545;SDS011;50104;52.002;4.688;2022-08-03T19:25:37;5.55;;;1.10;;
47545;SDS011;50104;52.002;4.688;2022-08-03T19:30:39;3.97;;;1.90;;
47545;SDS011;50104;52.002;4.688;2022-08-03T19:35:40;6.57;;;1.58;;
47545;SDS011;50104;52.002;4.688;2022-08-03T19:40:46;3.75;;;1.42;;
47545;SDS011;50104;52.002;4.688;2022-08-03T19:50:51;3.70;;;1.48;;
47545;SDS011;50104;52.002;4.688;2022-08-03T19:55:55;3.85;;;1.20;;
47545;SDS011;50104;52.002;4.688;2022-08-03T20:00:58;3.63;;;1.10;;
47545;SDS011;50104;52.002;4.688;2022-08-03T20:05:59;3.58;;;1.30;;
47545;SDS011;50104;52.002;4.688;2022-08-03T20:11:01;6.15;;;1.30;;
47545;SDS011;50104;52.002;4.688;2022-08-03T20:16:02;4.15;;;1.50;;
47545;SDS011;50104;52.002;4.688;2022-08-03T20:21:05;2.75;;;1.65;;
47545;SDS011;50104;52.002;4.688;2022-08-03T20:26:12;5.10;;;1.70;;
47545;SDS011;50104;52.002;4.688;2022-08-03T20:31:19;6.80;;;1.85;;
47545;SDS011;50104;52.002;4.688;2022-08-03T20:36:20;7.18;;;4.63;;
47545;SDS011;50104;52.002;4.688;2022-08-03T20:41:21;9.50;;;4.72;;
47545;SDS011;50104;52.002;4.688;2022-08-03T20:46:21;5.35;;;2.42;;
47545;SDS011;50104;52.002;4.688;2022-08-03T20:51:22;3.58;;;1.70;;
47545;SDS011;50104;52.002;4.688;2022-08-03T20:56:24;5.53;;;2.20;;
47545;SDS011;50104;52.002;4.688;2022-08-03T21:01:30;3.17;;;1.70;;
47545;SDS011;50104;52.002;4.688;2022-08-03T21:06:33;3.72;;;1.50;;
47545;SDS011;50104;52.002;4.688;2022-08-03T21:11:39;8.18;;;2.10;;
47545;SDS011;50104;52.002;4.688;2022-08-03T21:16:51;4.25;;;1.60;;
47545;SDS011;50104;52.002;4.688;2022-08-03T21:21:52;5.25;;;1.83;;
47545;SDS011;50104;52.002;4.688;2022-08-03T21:26:57;2.47;;;1.67;;
47545;SDS011;50104;52.002;4.688;2022-08-03T21:31:58;6.45;;;2.03;;
47545;SDS011;50104;52.002;4.688;2022-08-03T21:37:01;5.43;;;1.83;;
47545;SDS011;50104;52.002;4.688;2022-08-03T21:42:02;6.60;;;2.00;;
47545;SDS011;50104;52.002;4.688;2022-08-03T21:47:06;2.72;;;1.88;;
47545;SDS011;50104;52.002;4.688;2022-08-03T21:52:10;3.45;;;1.75;;
47545;SDS011;50104;52.002;4.688;2022-08-03T21:57:12;5.85;;;2.45;;
47545;SDS011;50104;52.002;4.688;2022-08-03T22:02:19;6.22;;;2.20;;
47545;SDS011;50104;52.002;4.688;2022-08-03T22:07:28;3.45;;;2.05;;
47545;SDS011;50104;52.002;4.688;2022-08-03T22:12:30;4.80;;;2.47;;
47545;SDS011;50104;52.002;4.688;2022-08-03T22:17:33;8.13;;;2.53;;
47545;SDS011;50104;52.002;4.688;2022-08-03T22:22:37;5.15;;;3.03;;
47545;SDS011;50104;52.002;4.688;2022-08-03T22:27:40;5.00;;;2.60;;
47545;SDS011;50104;52.002;4.688;2022-08-03T22:32:44;5.82;;;2.47;;
47545;SDS011;50104;52.002;4.688;2022-08-03T22:37:47;5.25;;;2.97;;
47545;SDS011;50104;52.002;4.688;2022-08-03T22:47:53;8.10;;;3.15;;
47545;SDS011;50104;52.002;4.688;2022-08-03T22:52:55;4.82;;;2.38;;
47545;SDS011;50104;52.002;4.688;2022-08-03T22:57:56;5.80;;;3.45;;
47545;SDS011;50104;52.002;4.688;2022-08-03T23:02:56;8.80;;;3.08;;
47545;SDS011;50104;52.002;4.688;2022-08-03T23:08:01;7.18;;;2.70;;
47545;SDS011;50104;52.002;4.688;2022-08-03T23:13:03;10.05;;;3.30;;
47545;SDS011;50104;52.002;4.688;2022-08-03T23:18:07;8.90;;;4.07;;
47545;SDS011;50104;52.002;4.688;2022-08-03T23:23:08;4.95;;;3.65;;
47545;SDS011;50104;52.002;4.688;2022-08-03T23:28:11;5.30;;;3.28;;
47545;SDS011;50104;52.002;4.688;2022-08-03T23:33:16;3.83;;;2.95;;
47545;SDS011;50104;52.002;4.688;2022-08-03T23:38:17;9.20;;;3.72;;
47545;SDS011;50104;52.002;4.688;2022-08-03T23:43:19;5.90;;;3.58;;
47545;SDS011;50104;52.002;4.688;2022-08-03T23:48:24;6.38;;;4.00;;
47545;SDS011;50104;52.002;4.688;2022-08-03T23:53:47;4.80;;;3.50;;
